F/V Anna Mamm Mari — FOHD — position and weather

sailwx.info

Track history (hours):
 
Tides and Currents Weather Stations Pressure Air Temp Water Temp Dewpoint Dewpoint Depression Visibility Wind Speed Wind Dir Waves Ship Positions

F/V Anna Mamm Mari

Last reported at 2014-Dec-18 00:06 UTC. Time now 2014-Dec-19 00:32 UTC.
Position N 46°23' W 001°55'.

Length 17 m.

Type: Fishing. MMSI: 228393000.

Date/timePositionNaut miles runAvg speedWind from/ knotsBaromVisibWave heightAir tempDewpointWater temp
2014-Dec-18 00:06N 46°23' W 001°55'4 7.9
2014-Dec-17 23:34N 46°26' W 001°51'5 4.6
2014-Dec-17 22:34N 46°30' W 001°47'0 0.0
2014-Dec-17 21:33N 46°30' W 001°47'0 0.0
2014-Dec-17 20:33N 46°30' W 001°47'0 0.0
2014-Dec-17 19:33N 46°30' W 001°47'0 0.0
2014-Dec-17 18:34N 46°30' W 001°47'0 0.0
2014-Dec-17 17:33N 46°30' W 001°47'0 0.0
2014-Dec-17 16:34N 46°30' W 001°47'0 0.0
2014-Dec-17 15:33N 46°30' W 001°47'0 0.0
2014-Dec-17 14:33N 46°30' W 001°47'0 0.0
2014-Dec-17 13:34N 46°30' W 001°47'0 0.0
2014-Dec-17 12:34N 46°30' W 001°47'0 0.2
2014-Dec-17 11:34N 46°30' W 001°47'6 6.4
2014-Dec-17 10:33N 46°25' W 001°53'  
2014-Dec-15 04:14N 46°20' W 001°55'6 8.4
2014-Dec-15 03:34N 46°25' W 001°51'6 5.5
2014-Dec-15 02:34N 46°30' W 001°47'0 0.0
2014-Dec-15 01:34N 46°30' W 001°47'0 0.0
2014-Dec-15 00:34N 46°30' W 001°47'0 0.0
2014-Dec-14 23:33N 46°30' W 001°47'0 0.2
2014-Dec-14 22:33N 46°30' W 001°48'0 0.0
2014-Dec-14 21:34N 46°30' W 001°48'0 0.2
2014-Dec-14 20:34N 46°30' W 001°47'3 2.8
2014-Dec-14 19:34N 46°27' W 001°49'9 8.9
2014-Dec-14 18:33N 46°20' W 001°55'  
2014-Dec-11 04:30N 46°23' W 001°56'7 7.0
2014-Dec-11 03:34N 46°28' W 001°49'2 2.4
2014-Dec-11 02:34N 46°30' W 001°47'0 0.0
2014-Dec-11 01:34N 46°30' W 001°47'0 0.0
2014-Dec-11 00:34N 46°30' W 001°47'0 0.0
2014-Dec-10 23:34N 46°30' W 001°47'0 0.2
2014-Dec-10 22:34N 46°30' W 001°47'0 0.0
2014-Dec-10 21:33N 46°30' W 001°47'5 5.4
2014-Dec-10 20:33N 46°25' W 001°51'9 8.4
2014-Dec-10 19:30N 46°20' W 002°01'  
2014-Dec-08 03:17N 46°22' W 001°57'6 8.4
2014-Dec-08 02:32N 46°26' W 001°51'4 4.4
2014-Dec-08 01:33N 46°30' W 001°47'0 0.2
2014-Dec-08 00:33N 46°30' W 001°47'  
Track history (hours):
 
Tides and Currents Weather Stations Pressure Air Temp Water Temp Dewpoint Dewpoint Depression Visibility Wind Speed Wind Dir Waves Ship Positions

F/V Anna Mamm Mari

Last reported at 2014-Dec-18 00:06 UTC. Time now 2014-Dec-19 00:32 UTC.
Position N 46°23' W 001°55'.

Length 17 m.

Type: Fishing. MMSI: 228393000.

Date/timePositionNaut miles runAvg speedWind from/ knotsBaromVisibWave heightAir tempDewpointWater temp
2014-Dec-18 00:06N 46°23' W 001°55'4 7.9
2014-Dec-17 23:34N 46°26' W 001°51'5 4.6
2014-Dec-17 22:34N 46°30' W 001°47'0 0.0
2014-Dec-17 21:33N 46°30' W 001°47'0 0.0
2014-Dec-17 20:33N 46°30' W 001°47'0 0.0
2014-Dec-17 19:33N 46°30' W 001°47'0 0.0
2014-Dec-17 18:34N 46°30' W 001°47'0 0.0
2014-Dec-17 17:33N 46°30' W 001°47'0 0.0
2014-Dec-17 16:34N 46°30' W 001°47'0 0.0
2014-Dec-17 15:33N 46°30' W 001°47'0 0.0
2014-Dec-17 14:33N 46°30' W 001°47'0 0.0
2014-Dec-17 13:34N 46°30' W 001°47'0 0.0
2014-Dec-17 12:34N 46°30' W 001°47'0 0.2
2014-Dec-17 11:34N 46°30' W 001°47'6 6.4
2014-Dec-17 10:33N 46°25' W 001°53'  
2014-Dec-15 04:14N 46°20' W 001°55'6 8.4
2014-Dec-15 03:34N 46°25' W 001°51'6 5.5
2014-Dec-15 02:34N 46°30' W 001°47'0 0.0
2014-Dec-15 01:34N 46°30' W 001°47'0 0.0
2014-Dec-15 00:34N 46°30' W 001°47'0 0.0
2014-Dec-14 23:33N 46°30' W 001°47'0 0.2
2014-Dec-14 22:33N 46°30' W 001°48'0 0.0
2014-Dec-14 21:34N 46°30' W 001°48'0 0.2
2014-Dec-14 20:34N 46°30' W 001°47'3 2.8
2014-Dec-14 19:34N 46°27' W 001°49'9 8.9
2014-Dec-14 18:33N 46°20' W 001°55'  
2014-Dec-11 04:30N 46°23' W 001°56'7 7.0
2014-Dec-11 03:34N 46°28' W 001°49'2 2.4
2014-Dec-11 02:34N 46°30' W 001°47'0 0.0
2014-Dec-11 01:34N 46°30' W 001°47'0 0.0
2014-Dec-11 00:34N 46°30' W 001°47'0 0.0
2014-Dec-10 23:34N 46°30' W 001°47'0 0.2
2014-Dec-10 22:34N 46°30' W 001°47'0 0.0
2014-Dec-10 21:33N 46°30' W 001°47'5 5.4
2014-Dec-10 20:33N 46°25' W 001°51'9 8.4
2014-Dec-10 19:30N 46°20' W 002°01'  
2014-Dec-08 03:17N 46°22' W 001°57'6 8.4
2014-Dec-08 02:32N 46°26' W 001°51'4 4.4
2014-Dec-08 01:33N 46°30' W 001°47'0 0.2
2014-Dec-08 00:33N 46°30' W 001°47'  

Dump ship's entire track history